Terminal Aerodrome Forecast
Issued by NWS Sterling, VA

Current Version | Previous Version | Graphics & Text | Print | Product List | Glossary On
Versions: 1 2 3 4 5 6 7 8 9 10 11 12 13 14 15 16 17 18 19 20 21 22
000
FTUS41 KLWX 260541 RRA
TAFDCA
TAF
KDCA 260541Z 2606/2706 33004KT P6SM OVC045
     FM260800 34004KT P6SM OVC030
     FM261100 34005KT P6SM OVC040
     FM262100 34008KT P6SM SCT100
     FM270100 34004KT P6SM SCT100=

USA.gov is the U.S. government's official web portal to all federal, state and local government web resources and services.